createdAt,value
2022-09-18T00:00:48.661Z,91.69
2022-09-18T00:03:52.214Z,91.86
2022-09-18T00:06:53.982Z,91.81
2022-09-18T00:09:55.807Z,92.19
2022-09-18T00:12:57.607Z,91.97
2022-09-18T00:15:59.565Z,92.19
2022-09-18T00:19:01.937Z,92.16
2022-09-18T00:22:03.825Z,92.03
2022-09-18T00:25:06.068Z,91.94
2022-09-18T00:28:08.199Z,92.03
2022-09-18T00:31:21.920Z,91.78
2022-09-18T00:34:23.819Z,91.79
2022-09-18T00:37:25.734Z,91.85
2022-09-18T00:40:27.626Z,92.19
2022-09-18T00:43:32.057Z,92.08
2022-09-18T00:46:36.698Z,91.98
2022-09-18T00:49:42.057Z,92.24
2022-09-18T00:53:02.174Z,92.12
2022-09-18T00:56:04.517Z,92.38
2022-09-18T00:59:08.886Z,92.40
2022-09-18T01:02:12.373Z,92.56
2022-09-18T01:05:31.981Z,92.59
2022-09-18T01:09:05.863Z,92.72
2022-09-18T01:12:34.234Z,93.00
2022-09-18T01:16:11.669Z,93.21
2022-09-18T01:19:40.509Z,92.82
2022-09-18T01:22:53.242Z,93.03
2022-09-18T01:26:13.710Z,93.11
2022-09-18T01:29:28.282Z,93.02
2022-09-18T01:32:39.342Z,93.27
2022-09-18T01:35:52.823Z,93.35
2022-09-18T01:39:01.105Z,93.28
2022-09-18T01:42:06.142Z,93.51
2022-09-18T01:45:12.931Z,93.85
2022-09-18T01:48:25.307Z,94.19
2022-09-18T01:51:36.060Z,94.24
2022-09-18T01:54:42.968Z,94.28
2022-09-18T01:58:03.188Z,94.35
2022-09-18T02:01:13.200Z,94.80
2022-09-18T02:04:24.963Z,94.88
2022-09-18T02:07:37.867Z,95.30
2022-09-18T02:10:46.217Z,95.04
2022-09-18T02:14:14.766Z,95.26
2022-09-18T02:17:47.846Z,95.49
2022-09-18T02:20:52.040Z,95.35
2022-09-18T02:24:01.982Z,95.42
2022-09-18T02:27:09.837Z,95.89
2022-09-18T02:30:12.358Z,96.12
2022-09-18T02:33:49.838Z,96.66
2022-09-18T02:36:56.803Z,96.45
2022-09-18T02:40:19.973Z,96.32
2022-09-18T02:44:07.786Z,96.29
2022-09-18T02:48:00.213Z,96.66
2022-09-18T02:51:23.651Z,96.11
2022-09-18T02:54:28.368Z,96.37
2022-09-18T02:57:39.281Z,96.13
2022-09-18T03:00:47.747Z,95.89
2022-09-18T03:03:52.828Z,96.14
2022-09-18T03:07:03.494Z,96.21
2022-09-18T03:10:11.676Z,96.67
2022-09-18T03:13:13.494Z,96.40
2022-09-18T03:16:15.383Z,96.59
2022-09-18T03:19:17.874Z,96.56
2022-09-18T03:22:19.801Z,96.41
2022-09-18T03:25:23.124Z,96.80
2022-09-18T03:28:26.103Z,96.51
2022-09-18T03:31:28.834Z,96.85
2022-09-18T03:34:31.039Z,96.90
2022-09-18T03:37:32.947Z,96.67
2022-09-18T03:40:37.270Z,96.83
2022-09-18T03:43:40.876Z,97.11
2022-09-18T03:46:45.436Z,96.83
2022-09-18T03:49:47.446Z,97.11
2022-09-18T03:52:51.478Z,97.12
2022-09-18T03:56:15.505Z,96.89
2022-09-18T03:59:29.470Z,97.10
2022-09-18T04:02:47.032Z,97.06
2022-09-18T04:06:09.425Z,97.21
2022-09-18T04:09:34.884Z,96.75
2022-09-18T04:12:36.848Z,97.08
2022-09-18T04:15:45.383Z,96.91
2022-09-18T04:18:48.353Z,97.25
2022-09-18T04:21:50.166Z,97.23
2022-09-18T04:24:52.096Z,96.80
2022-09-18T04:27:53.875Z,96.83
2022-09-18T04:30:56.717Z,96.95
2022-09-18T04:33:59.139Z,96.97
2022-09-18T04:37:00.973Z,97.04
2022-09-18T04:40:04.111Z,97.32
2022-09-18T04:43:06.372Z,97.19
2022-09-18T04:46:09.694Z,96.96
2022-09-18T04:49:11.807Z,97.03
2022-09-18T04:52:13.765Z,96.91
2022-09-18T04:55:15.700Z,96.94
2022-09-18T04:58:18.920Z,96.97
2022-09-18T05:01:24.976Z,96.61
2022-09-18T05:04:26.868Z,96.46
2022-09-18T05:07:35.105Z,96.65
2022-09-18T05:10:37.066Z,96.50
2022-09-18T05:13:40.826Z,96.53
2022-09-18T05:16:48.944Z,96.81
2022-09-18T05:20:26.205Z,96.49
2022-09-18T05:23:29.792Z,96.66
2022-09-18T05:26:32.305Z,96.79
2022-09-18T05:29:34.215Z,96.53
2022-09-18T05:32:44.631Z,96.72
2022-09-18T05:35:46.433Z,96.77
2022-09-18T05:38:49.340Z,96.99
2022-09-18T05:41:53.043Z,96.70
2022-09-18T05:44:57.631Z,96.62
2022-09-18T05:48:05.845Z,96.92
2022-09-18T05:51:09.020Z,96.51
2022-09-18T05:54:10.873Z,96.59
2022-09-18T05:57:16.428Z,96.59
2022-09-18T06:00:27.479Z,96.76
2022-09-18T06:03:36.747Z,96.71
2022-09-18T06:06:40.342Z,96.31
2022-09-18T06:09:42.386Z,96.61
2022-09-18T06:12:44.810Z,96.08
2022-09-18T06:15:47.622Z,96.24
2022-09-18T06:18:51.863Z,95.97
2022-09-18T06:21:54.949Z,95.81
2022-09-18T06:24:57.309Z,95.74
2022-09-18T06:28:06.764Z,95.96
2022-09-18T06:31:09.889Z,95.50
2022-09-18T06:34:40.930Z,95.59
2022-09-18T06:37:46.020Z,95.81
2022-09-18T06:41:09.071Z,95.73
2022-09-18T06:44:31.378Z,95.44
2022-09-18T06:47:40.873Z,95.33
2022-09-18T06:50:43.857Z,95.55
2022-09-18T06:53:45.762Z,95.55
2022-09-18T06:56:47.992Z,95.53
2022-09-18T06:59:51.898Z,95.48
2022-09-18T07:03:01.842Z,95.74
2022-09-18T07:06:22.802Z,95.78
2022-09-18T07:09:26.624Z,96.01
2022-09-18T07:12:32.193Z,96.17
2022-09-18T07:15:34.843Z,96.21
2022-09-18T07:18:40.866Z,96.72
2022-09-18T07:21:47.983Z,96.31
2022-09-18T07:24:52.332Z,96.58
2022-09-18T07:27:55.017Z,96.45
2022-09-18T07:31:03.582Z,96.92
2022-09-18T07:34:08.220Z,97.42
2022-09-18T07:37:11.327Z,97.91
2022-09-18T07:40:15.499Z,98.17
2022-09-18T07:43:44.339Z,98.63
2022-09-18T07:46:47.193Z,97.77
2022-09-18T07:49:49.303Z,97.79
2022-09-18T07:52:54.225Z,98.51
2022-09-18T07:56:00.432Z,98.25
2022-09-18T07:59:03.629Z,98.26
2022-09-18T08:02:11.036Z,98.47
2022-09-18T08:05:16.793Z,98.42
2022-09-18T08:08:27.065Z,98.87
2022-09-18T08:11:54.290Z,98.50
2022-09-18T08:15:22.822Z,98.43
2022-09-18T08:18:44.665Z,98.43
2022-09-18T08:22:18.807Z,98.19
2022-09-18T08:25:31.281Z,98.42
2022-09-18T08:28:34.222Z,98.14
2022-09-18T08:31:39.196Z,97.63
2022-09-18T08:34:44.619Z,97.61
2022-09-18T08:37:49.447Z,97.28
2022-09-18T08:41:20.343Z,96.99
2022-09-18T08:44:28.411Z,96.86
2022-09-18T08:47:40.831Z,95.94
2022-09-18T08:50:54.805Z,95.81
2022-09-18T08:54:17.340Z,95.37
2022-09-18T08:57:59.169Z,94.99
2022-09-18T09:01:13.098Z,94.93
2022-09-18T09:04:29.580Z,94.92
2022-09-18T09:07:50.511Z,94.06
2022-09-18T09:11:07.165Z,93.64
2022-09-18T09:14:56.675Z,92.79
2022-09-18T09:18:17.943Z,92.33
2022-09-18T09:21:24.746Z,91.46
2022-09-18T09:24:38.443Z,91.06
2022-09-18T09:27:49.455Z,89.56
2022-09-18T09:31:15.511Z,90.52
2022-09-18T09:34:44.521Z,90.30
2022-09-18T09:38:06.649Z,90.39
2022-09-18T09:41:19.207Z,90.09
2022-09-18T09:44:31.009Z,89.72
2022-09-18T09:48:00.076Z,89.71
2022-09-18T09:51:08.664Z,89.39
2022-09-18T09:54:12.649Z,89.11
2022-09-18T09:57:27.572Z,88.57
2022-09-18T10:00:54.122Z,87.06
2022-09-18T10:04:19.926Z,86.17
2022-09-18T10:07:31.269Z,85.76
2022-09-18T10:10:45.430Z,85.16
2022-09-18T10:13:56.649Z,84.04
2022-09-18T10:17:02.385Z,83.88
2022-09-18T10:20:06.048Z,82.48
2022-09-18T10:23:38.846Z,81.39
2022-09-18T10:27:01.170Z,79.89
2022-09-18T10:30:12.716Z,79.94
2022-09-18T10:34:29.817Z,77.72
2022-09-18T10:37:55.230Z,79.86
2022-09-18T10:45:23.904Z,76.56
2022-09-18T10:48:31.287Z,77.30
2022-09-18T10:51:33.148Z,77.23
2022-09-18T10:54:36.511Z,77.23
2022-09-18T10:58:05.748Z,77.47
2022-09-18T11:01:15.942Z,77.76
2022-09-18T11:04:22.899Z,76.76
2022-09-18T11:07:26.038Z,76.39
2022-09-18T11:10:33.108Z,75.47
2022-09-18T11:13:49.592Z,75.01
2022-09-18T11:17:01.419Z,74.80
2022-09-18T11:20:28.104Z,74.40
2022-09-18T11:23:38.063Z,74.89
2022-09-18T11:27:18.436Z,74.51
2022-09-18T11:30:26.159Z,74.50
2022-09-18T11:33:33.787Z,73.83
2022-09-18T11:36:41.053Z,73.50
2022-09-18T11:39:52.028Z,73.47
2022-09-18T11:42:56.067Z,72.81
2022-09-18T11:46:40.531Z,72.04
2022-09-18T11:50:02.256Z,69.54
2022-09-18T11:53:18.361Z,69.27
2022-09-18T11:56:36.209Z,66.32
2022-09-18T11:59:44.820Z,67.39
2022-09-18T12:02:57.850Z,67.78
2022-09-18T12:06:27.646Z,66.68
2022-09-18T12:09:31.177Z,67.74
2022-09-18T12:12:42.968Z,65.04
2022-09-18T12:16:08.215Z,64.34
2022-09-18T12:19:49.229Z,63.85
2022-09-18T12:22:57.097Z,63.83
2022-09-18T12:26:37.498Z,63.72
2022-09-18T12:30:09.904Z,63.30
2022-09-18T12:33:24.393Z,63.03
2022-09-18T12:36:44.688Z,62.85
2022-09-18T12:40:22.866Z,63.12
2022-09-18T12:43:36.444Z,63.39
2022-09-18T12:47:09.814Z,62.65
2022-09-18T12:50:29.824Z,63.18
2022-09-18T12:54:05.869Z,63.27
2022-09-18T12:57:08.384Z,64.02
2022-09-18T13:00:13.960Z,64.49
2022-09-18T13:03:25.376Z,64.40
2022-09-18T13:06:38.970Z,64.68
2022-09-18T13:10:03.956Z,64.26
2022-09-18T13:13:23.306Z,63.62
2022-09-18T13:16:38.955Z,63.39
2022-09-18T13:19:47.985Z,62.46
2022-09-18T13:22:53.353Z,62.61
2022-09-18T13:25:57.665Z,62.97
2022-09-18T13:29:01.198Z,62.81
2022-09-18T13:32:03.165Z,62.08
2022-09-18T13:35:14.003Z,62.48
2022-09-18T13:38:19.884Z,62.61
2022-09-18T13:41:21.904Z,62.30
2022-09-18T13:44:25.127Z,62.70
2022-09-18T13:47:27.086Z,63.02
2022-09-18T13:50:35.513Z,63.41
2022-09-18T13:53:40.596Z,63.38
2022-09-18T13:57:04.741Z,63.42
2022-09-18T14:00:21.622Z,63.43
2022-09-18T14:03:27.615Z,63.70
2022-09-18T14:06:36.196Z,63.96
2022-09-18T14:10:03.090Z,63.00
2022-09-18T14:13:15.005Z,63.12
2022-09-18T14:16:20.008Z,62.84
2022-09-18T14:19:33.648Z,62.47
2022-09-18T14:22:38.258Z,62.09
2022-09-18T14:25:48.086Z,61.54
2022-09-18T14:28:51.189Z,60.71
2022-09-18T14:31:57.081Z,60.62
2022-09-18T14:35:26.641Z,59.25
2022-09-18T14:38:34.803Z,59.00
2022-09-18T14:41:37.248Z,58.63
2022-09-18T14:44:39.688Z,58.43
2022-09-18T14:47:43.991Z,56.88
2022-09-18T14:50:58.367Z,56.15
2022-09-18T14:54:00.200Z,56.15
2022-09-18T14:57:03.475Z,56.30
2022-09-18T15:00:08.113Z,56.57
2022-09-18T15:03:20.830Z,57.25
2022-09-18T15:06:24.519Z,58.18
2022-09-18T15:09:31.304Z,58.66
2022-09-18T15:12:35.648Z,58.81
2022-09-18T15:15:40.099Z,59.87
2022-09-18T15:18:43.088Z,60.27
2022-09-18T15:21:47.764Z,61.24
2022-09-18T15:24:50.263Z,61.52
2022-09-18T15:27:54.018Z,61.85
2022-09-18T15:31:04.789Z,61.74
2022-09-18T15:34:14.170Z,61.94
2022-09-18T15:37:22.354Z,62.00
2022-09-18T15:40:51.282Z,62.03
2022-09-18T15:43:53.215Z,62.13
2022-09-18T15:46:55.063Z,62.50
2022-09-18T15:49:58.552Z,63.03
2022-09-18T15:53:22.671Z,63.32
2022-09-18T15:56:24.450Z,63.66
2022-09-18T15:59:29.388Z,63.90
2022-09-18T16:02:36.108Z,63.86
2022-09-18T16:05:39.447Z,63.99
2022-09-18T16:08:41.377Z,63.87
2022-09-18T16:11:46.501Z,64.17
2022-09-18T16:15:16.009Z,63.88
2022-09-18T16:18:27.228Z,63.66
2022-09-18T16:21:31.189Z,63.51
2022-09-18T16:24:33.793Z,63.24
2022-09-18T16:27:35.744Z,63.21
2022-09-18T16:30:38.794Z,63.41
2022-09-18T16:34:44.367Z,62.83
2022-09-18T16:37:48.453Z,63.18
2022-09-18T16:40:50.565Z,63.31
2022-09-18T16:43:53.947Z,63.09
2022-09-18T16:47:03.105Z,63.49
2022-09-18T16:50:08.281Z,63.76
2022-09-18T16:53:11.364Z,63.92
2022-09-18T16:56:18.624Z,64.02
2022-09-18T16:59:23.732Z,64.21
2022-09-18T17:02:27.798Z,64.61
2022-09-18T17:05:32.780Z,64.70
2022-09-18T17:08:38.493Z,64.62
2022-09-18T17:12:02.000Z,64.61
2022-09-18T17:15:07.243Z,64.64
2022-09-18T17:18:11.049Z,64.70
2022-09-18T17:21:16.246Z,64.56
2022-09-18T17:24:28.978Z,65.06
2022-09-18T17:27:31.854Z,65.94
2022-09-18T17:30:34.219Z,66.54
2022-09-18T17:33:37.595Z,66.25
2022-09-18T17:36:41.256Z,66.20
2022-09-18T17:39:46.751Z,65.60
2022-09-18T17:42:49.820Z,65.27
2022-09-18T17:46:02.017Z,65.11
2022-09-18T17:49:04.524Z,64.68
2022-09-18T17:52:11.404Z,64.24
2022-09-18T17:55:19.295Z,64.53
2022-09-18T17:58:24.097Z,64.79
2022-09-18T18:01:28.243Z,64.88
2022-09-18T18:04:31.185Z,64.79
2022-09-18T18:07:35.201Z,64.66
2022-09-18T18:10:38.166Z,64.79
2022-09-18T18:13:49.634Z,64.68
2022-09-18T18:16:53.168Z,65.02
2022-09-18T18:19:55.939Z,65.50
2022-09-18T18:23:04.061Z,65.53
2022-09-18T18:26:10.051Z,65.15
2022-09-18T18:29:16.721Z,63.07
2022-09-18T18:32:24.417Z,62.93
2022-09-18T18:35:28.116Z,62.73
2022-09-18T18:38:30.814Z,62.93
2022-09-18T18:41:33.795Z,63.49
2022-09-18T18:44:37.500Z,63.41
2022-09-18T18:47:41.628Z,62.60
2022-09-18T18:50:45.901Z,62.52
2022-09-18T18:53:49.546Z,62.83
2022-09-18T18:56:51.884Z,62.74
2022-09-18T18:59:53.768Z,63.49
2022-09-18T19:02:57.262Z,63.06
2022-09-18T19:06:01.391Z,63.48
2022-09-18T19:09:19.293Z,63.92
2022-09-18T19:12:26.299Z,64.43
2022-09-18T19:15:29.839Z,64.02
2022-09-18T19:18:34.349Z,63.30
2022-09-18T19:21:38.051Z,62.02
2022-09-18T19:24:40.020Z,59.85
2022-09-18T19:27:42.326Z,58.10
2022-09-18T19:30:47.225Z,58.04
2022-09-18T19:33:50.822Z,57.38
2022-09-18T19:36:54.266Z,57.52
2022-09-18T19:39:56.390Z,57.96
2022-09-18T19:43:05.669Z,58.68
2022-09-18T19:46:13.545Z,58.95
2022-09-18T19:49:21.815Z,59.46
2022-09-18T19:52:28.360Z,59.78
2022-09-18T19:55:31.112Z,59.73
2022-09-18T19:58:34.278Z,59.28
2022-09-18T20:01:37.503Z,59.11
2022-09-18T20:04:40.989Z,59.21
2022-09-18T20:07:46.110Z,58.78
2022-09-18T20:10:49.317Z,58.39
2022-09-18T20:13:53.634Z,58.54
2022-09-18T20:16:55.766Z,58.81
2022-09-18T20:19:59.505Z,59.33
2022-09-18T20:23:01.410Z,57.62
2022-09-18T20:26:29.265Z,57.20
2022-09-18T20:29:31.362Z,57.72
2022-09-18T20:32:33.554Z,57.98
2022-09-18T20:35:37.097Z,58.31
2022-09-18T20:38:40.889Z,58.74
2022-09-18T20:41:43.194Z,59.37
2022-09-18T20:44:45.761Z,59.80
2022-09-18T20:47:48.405Z,60.29
2022-09-18T20:50:50.632Z,60.62
2022-09-18T20:53:57.833Z,61.25
2022-09-18T20:57:01.359Z,61.57
2022-09-18T21:00:06.450Z,62.37
2022-09-18T21:03:08.646Z,62.77
2022-09-18T21:06:22.474Z,62.67
2022-09-18T21:09:28.288Z,62.60
2022-09-18T21:12:37.432Z,62.71
2022-09-18T21:15:42.711Z,62.88
2022-09-18T21:18:44.560Z,62.62
2022-09-18T21:21:48.549Z,62.91
2022-09-18T21:24:50.337Z,62.99
2022-09-18T21:27:55.068Z,62.93
2022-09-18T21:31:08.230Z,63.32
2022-09-18T21:34:15.405Z,63.08
2022-09-18T21:37:18.403Z,63.04
2022-09-18T21:40:20.208Z,63.12
2022-09-18T21:43:21.996Z,62.86
2022-09-18T21:46:26.485Z,63.38
2022-09-18T21:49:29.316Z,63.16
2022-09-18T21:52:31.138Z,63.45
2022-09-18T21:55:37.604Z,63.03
2022-09-18T21:58:40.854Z,62.94
2022-09-18T22:01:43.447Z,63.28
2022-09-18T22:04:45.687Z,62.88
2022-09-18T22:07:47.485Z,62.98
2022-09-18T22:10:49.220Z,62.51
2022-09-18T22:13:52.685Z,62.66
2022-09-18T22:16:55.556Z,62.31
2022-09-18T22:19:57.169Z,61.61
2022-09-18T22:22:58.826Z,61.81
2022-09-18T22:26:04.769Z,61.84
2022-09-18T22:29:08.433Z,61.73
2022-09-18T22:32:10.863Z,61.87
2022-09-18T22:35:12.711Z,62.43
2022-09-18T22:38:14.426Z,62.40
2022-09-18T22:41:16.432Z,62.33
2022-09-18T22:44:20.579Z,62.47
2022-09-18T22:47:22.256Z,62.66
2022-09-18T22:50:23.947Z,62.68
2022-09-18T22:53:25.588Z,62.24
2022-09-18T22:56:28.081Z,62.16
2022-09-18T22:59:29.701Z,61.94
2022-09-18T23:02:32.229Z,62.32
2022-09-18T23:05:37.740Z,62.77
2022-09-18T23:08:40.512Z,62.15
2022-09-18T23:11:42.993Z,62.55
2022-09-18T23:14:44.715Z,62.35
2022-09-18T23:17:46.408Z,62.07
2022-09-18T23:20:48.112Z,61.98
2022-09-18T23:23:50.141Z,62.05
2022-09-18T23:26:52.793Z,61.88
2022-09-18T23:29:54.488Z,62.47
2022-09-18T23:32:56.196Z,62.61
2022-09-18T23:36:04.821Z,62.25
2022-09-18T23:39:07.792Z,62.72
2022-09-18T23:42:10.929Z,62.82
2022-09-18T23:45:12.655Z,62.89
2022-09-18T23:48:14.292Z,63.22
2022-09-18T23:51:16.160Z,63.29
2022-09-18T23:54:19.610Z,63.55
2022-09-18T23:57:22.644Z,63.75
